QTR65L LFPG-OTHH
Flight info
| Callsign | QTR65L |
|---|---|
| Flight time | N/A |
| Altitude | 35000 |
| Route | LANVI DCT BEGAR DCT TRA DCT SUXAN DCT ROTAR DCT VAKSU DCT PINDO DCT PAXIS/N0485F370 DCT OBRAN L321 REXUM M872 BDB Y214 RAPMA DCT LADBO/N0516F290 T142 LAEEB |
| Aircraft | B77W/H-SDE1E2E3FGHIJ2J3J4J5M1RWXY/LB1D1 |
Departure
| Time | 2026-05-01 12:57 |
|---|---|
| Airport | Charles de Gaulle International Airport (LFPG) |
Arrival
| Time | N/A |
|---|---|
| Airport | Hamad International Airport (OTHH) |
| Time | Latitude | Longitude | Altitude | Speed | Heading |
|---|---|---|---|---|---|
| 2026-05-01 12:36 | 49.01692 | 2.54300 | 359 ft | 0 kts | 195° |
| 2026-05-01 12:47 | 49.01694 | 2.54300 | 359 ft | 2 kts | 195° |
| 2026-05-01 12:47 | 49.01718 | 2.54311 | 361 ft | 4 kts | 196° |
| 2026-05-01 12:47 | 49.01744 | 2.54323 | 367 ft | 4 kts | 199° |
| 2026-05-01 12:47 | 49.01769 | 2.54338 | 363 ft | 4 kts | 206° |
| 2026-05-01 12:48 | 49.01791 | 2.54359 | 368 ft | 4 kts | 240° |
| 2026-05-01 12:48 | 49.01795 | 2.54377 | 365 ft | 0 kts | 282° |
| 2026-05-01 12:50 | 49.01795 | 2.54374 | 365 ft | 1 kts | 282° |
| 2026-05-01 12:50 | 49.01800 | 2.54341 | 365 ft | 5 kts | 282° |
| 2026-05-01 12:51 | 49.01811 | 2.54248 | 364 ft | 14 kts | 276° |
| 2026-05-01 12:51 | 49.01806 | 2.54075 | 362 ft | 17 kts | 263° |
| 2026-05-01 12:51 | 49.01789 | 2.53715 | 365 ft | 17 kts | 265° |
| 2026-05-01 12:52 | 49.01778 | 2.53536 | 363 ft | 17 kts | 265° |
| 2026-05-01 12:52 | 49.01757 | 2.53178 | 366 ft | 17 kts | 265° |
| 2026-05-01 12:52 | 49.01748 | 2.52994 | 363 ft | 18 kts | 266° |
| 2026-05-01 12:53 | 49.01728 | 2.52600 | 366 ft | 19 kts | 265° |
| 2026-05-01 12:53 | 49.01717 | 2.52403 | 366 ft | 19 kts | 265° |
| 2026-05-01 12:53 | 49.01707 | 2.52208 | 362 ft | 19 kts | 265° |
| 2026-05-01 12:54 | 49.01697 | 2.52010 | 360 ft | 19 kts | 265° |
| 2026-05-01 12:54 | 49.01674 | 2.51615 | 365 ft | 19 kts | 265° |
| 2026-05-01 12:54 | 49.01663 | 2.51420 | 359 ft | 19 kts | 265° |
| 2026-05-01 12:55 | 49.01785 | 2.51266 | 359 ft | 13 kts | 354° |
| 2026-05-01 12:55 | 49.01876 | 2.51255 | 365 ft | 13 kts | 356° |
| 2026-05-01 12:55 | 49.01966 | 2.51269 | 362 ft | 13 kts | 24° |
| 2026-05-01 12:56 | 49.02043 | 2.51346 | 368 ft | 13 kts | 41° |
| 2026-05-01 12:56 | 49.02070 | 2.51451 | 364 ft | 0 kts | 83° |
| 2026-05-01 12:56 | 49.02076 | 2.51531 | 368 ft | 25 kts | 85° |
| 2026-05-01 12:57 | 49.02110 | 2.52167 | 359 ft | 96 kts | 85° |
| 2026-05-01 12:57 | 49.02251 | 2.54725 | 405 ft | 183 kts | 86° |
| 2026-05-01 12:57 | 49.02338 | 2.56649 | 1001 ft | 180 kts | 88° |
| 2026-05-01 12:58 | 49.02469 | 2.59285 | 1774 ft | 190 kts | 87° |
| 2026-05-01 12:58 | 49.02544 | 2.60660 | 2179 ft | 196 kts | 88° |
| 2026-05-01 12:58 | 49.02665 | 2.62854 | 2415 ft | 220 kts | 89° |
| 2026-05-01 12:59 | 49.02945 | 2.67920 | 3268 ft | 253 kts | 86° |
| 2026-05-01 12:59 | 49.03087 | 2.70624 | 3958 ft | 257 kts | 86° |
| 2026-05-01 12:59 | 49.03363 | 2.76211 | 5294 ft | 271 kts | 88° |
| 2026-05-01 13:00 | 49.03641 | 2.81953 | 6860 ft | 276 kts | 88° |
| 2026-05-01 13:00 | 49.03781 | 2.84883 | 7618 ft | 277 kts | 88° |
| 2026-05-01 13:01 | 49.04063 | 2.90790 | 9155 ft | 281 kts | 88° |
| 2026-05-01 13:01 | 49.04185 | 2.93786 | 9898 ft | 281 kts | 93° |
| 2026-05-01 13:01 | 49.03423 | 2.99724 | 10695 ft | 305 kts | 108° |
| 2026-05-01 13:02 | 49.02819 | 3.02962 | 10880 ft | 329 kts | 108° |
| 2026-05-01 13:07 | 48.91930 | 3.90131 | 25397 ft | 442 kts | 97° |
| 2026-05-01 13:07 | 48.91669 | 3.94820 | 25912 ft | 445 kts | 97° |
| 2026-05-01 13:07 | 48.91409 | 3.99469 | 26412 ft | 448 kts | 97° |
| 2026-05-01 13:08 | 48.91143 | 4.04208 | 26917 ft | 451 kts | 97° |
| 2026-05-01 13:08 | 48.90874 | 4.08976 | 27401 ft | 454 kts | 97° |
| 2026-05-01 13:08 | 48.90602 | 4.13791 | 27878 ft | 457 kts | 97° |
| 2026-05-01 13:08 | 48.90325 | 4.18633 | 28335 ft | 459 kts | 98° |
| 2026-05-01 13:09 | 48.89809 | 4.23415 | 28672 ft | 459 kts | 109° |
| 2026-05-01 13:09 | 48.88471 | 4.27786 | 28980 ft | 454 kts | 122° |
| 2026-05-01 13:09 | 48.86847 | 4.31876 | 29252 ft | 460 kts | 122° |
| 2026-05-01 13:09 | 48.85227 | 4.36092 | 29619 ft | 462 kts | 121° |
| 2026-05-01 13:10 | 48.83628 | 4.40354 | 29887 ft | 467 kts | 121° |
| 2026-05-01 13:10 | 48.82023 | 4.44693 | 30164 ft | 471 kts | 120° |
| 2026-05-01 13:10 | 48.80427 | 4.49040 | 30560 ft | 471 kts | 120° |
| 2026-05-01 13:10 | 48.78837 | 4.53373 | 31048 ft | 468 kts | 120° |
| 2026-05-01 13:11 | 48.77275 | 4.57628 | 31491 ft | 466 kts | 121° |
| 2026-05-01 13:11 | 48.75692 | 4.61925 | 31905 ft | 465 kts | 121° |
| 2026-05-01 13:11 | 48.74110 | 4.66211 | 32275 ft | 465 kts | 121° |
| 2026-05-01 13:11 | 48.72527 | 4.70485 | 32649 ft | 465 kts | 121° |
| 2026-05-01 13:12 | 48.70944 | 4.74754 | 33046 ft | 464 kts | 121° |
| 2026-05-01 13:12 | 48.69385 | 4.78950 | 33416 ft | 462 kts | 121° |
| 2026-05-01 13:12 | 48.67794 | 4.83225 | 33582 ft | 467 kts | 121° |
| 2026-05-01 13:12 | 48.66190 | 4.87524 | 33839 ft | 468 kts | 121° |
| 2026-05-01 13:13 | 48.64589 | 4.91811 | 34222 ft | 466 kts | 121° |
| 2026-05-01 13:13 | 48.62997 | 4.96070 | 34581 ft | 464 kts | 121° |
| 2026-05-01 13:13 | 48.61405 | 5.00320 | 34849 ft | 464 kts | 121° |
| 2026-05-01 13:13 | 48.59827 | 5.04526 | 35082 ft | 465 kts | 121° |
| 2026-05-01 13:14 | 48.58223 | 5.08791 | 35166 ft | 468 kts | 121° |
| 2026-05-01 13:14 | 48.54990 | 5.17375 | 35230 ft | 468 kts | 121° |
| 2026-05-01 13:15 | 48.51779 | 5.25874 | 35236 ft | 466 kts | 121° |
| 2026-05-01 13:15 | 48.48570 | 5.34337 | 35249 ft | 467 kts | 121° |
| 2026-05-01 13:16 | 48.45323 | 5.42872 | 35250 ft | 469 kts | 121° |
| 2026-05-01 13:16 | 48.42083 | 5.51365 | 35246 ft | 469 kts | 121° |
| 2026-05-01 13:17 | 48.35550 | 5.68407 | 35259 ft | 470 kts | 121° |
| 2026-05-01 13:18 | 48.30731 | 5.81170 | 35250 ft | 471 kts | 115° |
| 2026-05-01 13:18 | 48.28580 | 5.90509 | 35272 ft | 472 kts | 108° |
| 2026-05-01 13:19 | 48.26693 | 5.99926 | 35271 ft | 473 kts | 109° |
| 2026-05-01 13:20 | 48.23688 | 6.14095 | 35269 ft | 475 kts | 109° |
| 2026-05-01 13:20 | 48.21613 | 6.23490 | 35263 ft | 476 kts | 109° |
| 2026-05-01 13:21 | 48.18470 | 6.37599 | 35263 ft | 477 kts | 110° |
| 2026-05-01 13:21 | 48.16362 | 6.47034 | 35257 ft | 477 kts | 109° |
| 2026-05-01 13:22 | 48.14244 | 6.56473 | 35265 ft | 477 kts | 109° |
| 2026-05-01 13:22 | 48.12127 | 6.65870 | 35262 ft | 478 kts | 109° |
| 2026-05-01 13:23 | 48.09988 | 6.75324 | 35268 ft | 478 kts | 109° |
| 2026-05-01 13:23 | 48.07857 | 6.84696 | 35262 ft | 478 kts | 109° |
| 2026-05-01 13:24 | 48.05699 | 6.94145 | 35264 ft | 479 kts | 109° |
| 2026-05-01 13:25 | 48.02456 | 7.08273 | 35271 ft | 480 kts | 110° |
| 2026-05-01 13:25 | 48.00282 | 7.17684 | 35270 ft | 481 kts | 110° |
| 2026-05-01 13:26 | 47.98084 | 7.27163 | 35263 ft | 481 kts | 109° |
| 2026-05-01 13:26 | 47.95893 | 7.36577 | 35267 ft | 482 kts | 109° |
| 2026-05-01 13:27 | 47.93688 | 7.46004 | 35269 ft | 482 kts | 109° |
| 2026-05-01 13:27 | 47.90358 | 7.60147 | 35268 ft | 482 kts | 110° |
| 2026-05-01 13:28 | 47.86833 | 7.74154 | 35275 ft | 483 kts | 110° |
| 2026-05-01 13:29 | 47.82073 | 7.92846 | 35278 ft | 483 kts | 110° |
| 2026-05-01 13:31 | 47.74892 | 8.20919 | 35288 ft | 483 kts | 110° |
| 2026-05-01 13:32 | 47.68530 | 8.43893 | 35294 ft | 483 kts | 119° |
| 2026-05-01 13:33 | 47.58312 | 8.63726 | 35295 ft | 484 kts | 128° |
| 2026-05-01 13:34 | 47.49900 | 8.79323 | 35304 ft | 485 kts | 127° |
| 2026-05-01 13:35 | 47.43610 | 8.90976 | 35292 ft | 486 kts | 127° |
| 2026-05-01 13:36 | 47.37271 | 9.02665 | 35291 ft | 486 kts | 127° |
| 2026-05-01 13:36 | 47.30925 | 9.14314 | 35299 ft | 487 kts | 128° |
| 2026-05-01 13:37 | 47.27383 | 9.20794 | 35306 ft | 487 kts | 127° |
| 2026-05-01 13:37 | 47.22414 | 9.29860 | 35301 ft | 487 kts | 127° |
| 2026-05-01 13:38 | 47.16020 | 9.41482 | 35291 ft | 486 kts | 127° |
| 2026-05-01 13:39 | 47.11776 | 9.49167 | 35292 ft | 487 kts | 127° |
| 2026-05-01 13:39 | 47.07498 | 9.56895 | 35296 ft | 486 kts | 127° |
| 2026-05-01 13:40 | 47.03240 | 9.64562 | 35280 ft | 485 kts | 127° |
| 2026-05-01 13:40 | 46.98985 | 9.72205 | 35288 ft | 486 kts | 127° |
| 2026-05-01 13:41 | 46.94698 | 9.79885 | 35287 ft | 487 kts | 127° |
| 2026-05-01 13:41 | 46.90415 | 9.87532 | 35291 ft | 487 kts | 127° |
| 2026-05-01 13:42 | 46.86107 | 9.95201 | 35276 ft | 484 kts | 127° |
| 2026-05-01 13:42 | 46.81852 | 10.02763 | 35301 ft | 485 kts | 127° |
| 2026-05-01 13:43 | 46.77538 | 10.10406 | 35302 ft | 486 kts | 127° |
| 2026-05-01 13:43 | 46.73248 | 10.17985 | 35304 ft | 487 kts | 127° |
| 2026-05-01 13:44 | 46.68926 | 10.25595 | 35313 ft | 488 kts | 127° |
| 2026-05-01 13:44 | 46.64595 | 10.33207 | 35305 ft | 487 kts | 127° |
| 2026-05-01 13:45 | 46.60291 | 10.40751 | 35288 ft | 486 kts | 127° |
| 2026-05-01 13:45 | 46.56676 | 10.47071 | 35294 ft | 485 kts | 126° |
| 2026-05-01 13:46 | 46.52651 | 10.54935 | 35312 ft | 484 kts | 122° |
| 2026-05-01 13:46 | 46.48736 | 10.62908 | 35294 ft | 485 kts | 122° |
| 2026-05-01 13:47 | 46.44841 | 10.70803 | 35307 ft | 484 kts | 122° |